KTUP

Tupelo Regional Airport

Tupelo, Mississippi, USA
KTUP 241725Z 2418/2518 17008KT P6SM VCSH SCT004 BKN015 FM242000 16006KT P6SM VCTS SCT025CB BKN035 FM250100 17007KT P6SM VCSH FEW020 BKN040 FM250600 18009KT 5SM BR OVC015 FM251500 20009KT P6SM VCSH FEW010 BKN025
Issued Valid From Valid To
Sep-24 @ 17:25 UTC
(2 hours ago)
Sep-24 @ 18:00 UTC
(an hour ago)
Sep-25 @ 18:00 UTC
(in 23 hours)
Sep-24 @ 18:00 to Sep-24 @ 20:00
KTUP 241725Z 2418/2518 17008KT P6SM VCSH SCT004 BKN015
Wind Visibility Clouds
170° at 8 knots Greater than 6 miles
  • Scattered at 400' AGL
  • Broken at 1,500' AGL
From Sep-24 @ 20:00 to Sep-25 @ 01:00
FM242000 16006KT P6SM VCTS SCT025CB BKN035
Wind Visibility Clouds Conditions
160° at 6 knots Greater than 6 miles
  • Scattered at 2,500' AGL
  • Broken at 3,500' AGL
  • Area Thunderstorm
From Sep-25 @ 01:00 to Sep-25 @ 06:00
FM250100 17007KT P6SM VCSH FEW020 BKN040
Wind Visibility Clouds
170° at 7 knots Greater than 6 miles
  • Few at 2,000' AGL
  • Broken at 4,000' AGL
From Sep-25 @ 06:00 to Sep-25 @ 15:00
FM250600 18009KT 5SM BR OVC015
Wind Visibility Clouds Conditions
180° at 9 knots 5 miles
  • Overcast at 1,500' AGL
  • Mist
From Sep-25 @ 15:00 to Sep-25 @ 18:00
FM251500 20009KT P6SM VCSH FEW010 BKN025
Wind Visibility Clouds
200° at 9 knots Greater than 6 miles
  • Few at 1,000' AGL
  • Broken at 2,500' AGL
KTUP 241725Z 2418/2518 17008KT P6SM VCSH SCT004 BKN015 FM242000 16006KT P6SM VCTS SCT025CB BKN035 FM250100 17007KT P6SM VCSH FEW020 BKN040 FM250600 18009KT 5SM BR OVC015 FM251500 20009KT P6SM VCSH FEW010 BKN025
Issued Sep-24 @ 17:25 UTC
(2 hours ago)
Valid From Sep-24 @ 18:00 UTC
(an hour ago)
Valid To Sep-25 @ 18:00 UTC
(in 23 hours)
Sep-24 @ 18:00 - Sep-24 @ 20:00
Wind Visibility
170° at 8 knots Greater than 6 miles
Clouds
  • Scattered at 400' AGL
  • Broken at 1,500' AGL
From Sep-24 @ 20:00 - Sep-25 @ 01:00
Wind Visibility
160° at 6 knots Greater than 6 miles
Clouds
  • Scattered at 2,500' AGL
  • Broken at 3,500' AGL
Conditions
  • Area Thunderstorm
From Sep-25 @ 01:00 - Sep-25 @ 06:00
Wind Visibility
170° at 7 knots Greater than 6 miles
Clouds
  • Few at 2,000' AGL
  • Broken at 4,000' AGL
From Sep-25 @ 06:00 - Sep-25 @ 15:00
Wind Visibility
180° at 9 knots 5 miles
Clouds
  • Overcast at 1,500' AGL
Conditions
  • Mist
From Sep-25 @ 15:00 - Sep-25 @ 18:00
Wind Visibility
200° at 9 knots Greater than 6 miles
Clouds
  • Few at 1,000' AGL
  • Broken at 2,500' AGL